Time;durP1;ratioP1;P1;durP2;ratioP2;P2;SDS_P1;SDS_P2;PMS_P1;PMS_P2;Temp;Humidity;BMP_temperature;BMP_pressure;BME280_temperature;BME280_humidity;BME280_pressure;Samples;Min_cycle;Max_cycle;Signal;HPM_P1;HPM_P2
2021/08/18 00:02:28;;;;;;;;;;;;;;;;;;5017557;28;40683;-78
2021/08/18 00:04:56;;;;;;;;;;;;;;;;;;5032814;28;38423;-78
2021/08/18 00:18:22;;;;;;;;;;;;;;;;;;5016921;28;38514;-79
2021/08/18 00:21:02;;;;;;;;;;;;;;;;;;5033398;28;39253;-80
2021/08/18 00:23:28;;;;;;;;;;;;;;;;;;5033857;28;48786;-80
2021/08/18 00:25:55;;;;;;;;;;;;;;;;;;5033615;28;38737;-79
2021/08/18 00:28:21;;;;;;;;;;;;;;;;;;5031623;28;37148;-80
2021/08/18 00:33:43;;;;;;;;;;;;;;;;;;5016480;28;50901;-79
2021/08/18 00:36:10;;;;;;;;;;;;;;;;;;5030047;28;38724;-78
2021/08/18 00:41:21;;;;;;;;;;;;;;;;;;5013428;28;40726;-81
2021/08/18 00:43:47;;;;;;;;;;;;;;;;;;5034280;28;39116;-79
2021/08/18 00:46:28;;;;;;;;;;;;;;;;;;5033194;28;38138;-79
2021/08/18 00:57:23;;;;;;;;;;;;;;;;;;5016325;28;39994;-79
2021/08/18 01:00:02;;;;;;;;;;;;;;;;;;5017161;28;36848;-80
2021/08/18 01:16:13;;;;;;;;;;;;;;;;;;5015212;28;40823;-80
2021/08/18 01:18:42;;;;;;;;;;;;;;;;;;5031560;28;38127;-79
2021/08/18 01:21:08;;;;;;;;;;;;;;;;;;5032406;28;35884;-79
2021/08/18 01:31:43;;;;;;;;;;;;;;;;;;5009210;28;50243;-79
2021/08/18 01:34:24;;;;;;;;;;;;;;;;;;5016112;28;40570;-79
2021/08/18 01:47:58;;;;;;;;;;;;;;;;;;5017643;28;40751;-81
2021/08/18 01:56:09;;;;;;;;;;;;;;;;;;5021028;28;40647;-80
2021/08/18 02:09:36;;;;;;;;;;;;;;;;;;5014432;28;50877;-80
2021/08/18 02:12:06;;;;;;;;;;;;;;;;;;5029672;28;37979;-80
2021/08/18 02:14:37;;;;;;;;;;;;;;;;;;5014708;28;37177;-80
2021/08/18 02:19:48;;;;;;;;;;;;;;;;;;5010152;28;40784;-80
2021/08/18 02:22:31;;;;;;;;;;;;;;;;;;5015748;28;39589;-80
2021/08/18 02:25:03;;;;;;;;;;;;;;;;;;5018719;28;38152;-81
2021/08/18 02:30:17;;;;;;;;;;;;;;;;;;5024594;28;41886;-80
2021/08/18 02:32:43;;;;;;;;;;;;;;;;;;5038869;28;37162;-80
2021/08/18 02:46:10;;;;;;;;;;;;;;;;;;5003750;28;38238;-80
2021/08/18 02:48:51;;;;;;;;;;;;;;;;;;5020068;28;39163;-80
2021/08/18 02:54:23;;;;;;;;;;;;;;;;;;5029158;28;40145;-80
2021/08/18 02:56:50;;;;;;;;;;;;;;;;;;5028496;28;36734;-79
2021/08/18 03:02:02;;;;;;;;;;;;;;;;;;5023411;28;40712;-80
2021/08/18 03:04:28;;;;;;;;;;;;;;;;;;5015915;28;48431;-80
2021/08/18 03:07:08;;;;;;;;;;;;;;;;;;5033301;28;36480;-79
2021/08/18 03:09:51;;;;;;;;;;;;;;;;;;5033242;28;48961;-79
2021/08/18 03:15:03;;;;;;;;;;;;;;;;;;5020821;28;39902;-79
2021/08/18 03:25:53;;;;;;;;;;;;;;;;;;5004168;28;50812;-79
2021/08/18 03:30:55;;;;;;;;;;;;;;;;;;5795377;23;19902;-79
2021/08/18 03:33:24;;;;;;;;;;;;;;;;;;5027255;28;39311;-79
2021/08/18 03:36:01;;;;;;;;;;;;;;;;;;5034023;28;38789;-79
2021/08/18 03:46:48;;;;;;;;;;;;;;;;;;5019080;28;50654;-80
2021/08/18 03:49:21;;;;;;;;;;;;;;;;;;5034018;28;38269;-80
2021/08/18 03:54:32;;;;;;;;;;;;;;;;;;5012441;28;50064;-79
2021/08/18 03:59:51;;;;;;;;;;;;;;;;;;5017628;28;50849;-79
2021/08/18 04:02:31;;;;;;;;;;;;;;;;;;5032737;28;39613;-80
2021/08/18 04:05:16;;;;;;;;;;;;;;;;;;5030793;28;39469;-79
2021/08/18 04:07:42;;;;;;;;;;;;;;;;;;5026154;28;49099;-80
2021/08/18 04:10:25;;;;;;;;;;;;;;;;;;5032941;28;36583;-80
2021/08/18 04:12:59;;;;;;;;;;;;;;;;;;5030998;28;39347;-80
2021/08/18 04:15:26;;;;;;;;;;;;;;;;;;5017018;28;38527;-80
2021/08/18 04:17:52;;;;;;;;;;;;;;;;;;5024714;28;38635;-79
2021/08/18 04:23:21;;;;;;;;;;;;;;;;;;5017260;28;40651;-79
2021/08/18 04:26:01;;;;;;;;;;;;;;;;;;5019042;28;39433;-79
2021/08/18 04:31:13;;;;;;;;;;;;;;;;;;5010169;28;38347;-81
2021/08/18 04:33:49;;;;;;;;;;;;;;;;;;5012842;28;39309;-80
2021/08/18 04:36:16;;;;;;;;;;;;;;;;;;4992562;28;39561;-80
2021/08/18 04:41:35;;;;;;;;;;;;;;;;;;4997420;28;50608;-79
2021/08/18 04:49:19;;;;;;;;;;;;;;;;;;4991775;28;39810;-80
2021/08/18 04:54:42;;;;;;;;;;;;;;;;;;4997676;28;50569;-80
2021/08/18 04:59:52;;;;;;;;;;;;;;;;;;4996539;28;39526;-79
2021/08/18 05:02:19;;;;;;;;;;;;;;;;;;4991911;28;37363;-78
2021/08/18 05:04:48;;;;;;;;;;;;;;;;;;5005362;28;39477;-79
2021/08/18 05:07:16;;;;;;;;;;;;;;;;;;4995478;28;39790;-79
2021/08/18 05:09:43;;;;;;;;;;;;;;;;;;4997121;28;37591;-78
2021/08/18 05:12:09;;;;;;;;;;;;;;;;;;4984862;28;36162;-78
2021/08/18 05:14:35;;;;;;;;;;;;;;;;;;4974883;28;39677;-78
2021/08/18 05:17:01;;;;;;;;;;;;;;;;;;4977680;28;39472;-79
2021/08/18 05:19:38;;;;;;;;;;;;;;;;;;4988423;28;48468;-80
2021/08/18 05:22:04;;;;;;;;;;;;;;;;;;4995560;28;38665;-78
2021/08/18 05:24:30;;;;;;;;;;;;;;;;;;5004243;28;39383;-80
2021/08/18 05:26:57;;;;;;;;;;;;;;;;;;4988699;28;39168;-78
2021/08/18 05:29:24;;;;;;;;;;;;;;;;;;4998938;28;39423;-79
2021/08/18 05:31:50;;;;;;;;;;;;;;;;;;4991275;28;37181;-79
2021/08/18 05:36:59;;;;;;;;;;;;;;;;;;5006267;28;40323;-78
2021/08/18 05:39:25;;;;;;;;;;;;;;;;;;4980591;28;37503;-78
2021/08/18 05:41:51;;;;;;;;;;;;;;;;;;4980995;28;36986;-76
2021/08/18 05:44:17;;;;;;;;;;;;;;;;;;4979037;28;40182;-78
2021/08/18 05:49:20;;;;;;;;;;;;;;;;;;4980866;28;39375;-78
2021/08/18 05:51:46;;;;;;;;;;;;;;;;;;4966001;28;37351;-78
2021/08/18 05:54:12;;;;;;;;;;;;;;;;;;4963536;28;38688;-78
2021/08/18 05:56:38;;;;;;;;;;;;;;;;;;4968772;28;38907;-78
2021/08/18 05:59:04;;;;;;;;;;;;;;;;;;4970555;28;37314;-78
2021/08/18 06:01:31;;;;;;;;;;;;;;;;;;4970729;28;36086;-77
2021/08/18 06:03:57;;;;;;;;;;;;;;;;;;4983989;28;39160;-79
2021/08/18 06:06:23;;;;;;;;;;;;;;;;;;4988668;28;38946;-78
2021/08/18 06:08:49;;;;;;;;;;;;;;;;;;4977697;28;39353;-79
2021/08/18 06:11:15;;;;;;;;;;;;;;;;;;4966356;28;36720;-79
2021/08/18 06:13:42;;;;;;;;;;;;;;;;;;4968923;28;39075;-79
2021/08/18 06:16:08;;;;;;;;;;;;;;;;;;4978094;28;38695;-79
2021/08/18 06:18:34;;;;;;;;;;;;;;;;;;4971441;28;37307;-79
2021/08/18 06:21:01;;;;;;;;;;;;;;;;;;4968106;28;35778;-78
2021/08/18 06:23:30;;;;;;;;;;;;;;;;;;4990865;28;49257;-79
2021/08/18 06:25:56;;;;;;;;;;;;;;;;;;4987305;28;38789;-79
2021/08/18 06:28:22;;;;;;;;;;;;;;;;;;4989027;28;39778;-79
2021/08/18 06:30:48;;;;;;;;;;;;;;;;;;4967215;28;36744;-79
2021/08/18 06:33:14;;;;;;;;;;;;;;;;;;4982029;28;38554;-78
2021/08/18 06:35:41;;;;;;;;;;;;;;;;;;4989241;28;40797;-78
2021/08/18 06:38:08;;;;;;;;;;;;;;;;;;4984448;28;38789;-79
2021/08/18 06:40:34;;;;;;;;;;;;;;;;;;4953738;28;36297;-79
2021/08/18 06:43:01;;;;;;;;;;;;;;;;;;4987454;28;37877;-79
2021/08/18 06:45:29;;;;;;;;;;;;;;;;;;4989984;28;38947;-79
2021/08/18 06:47:55;;;;;;;;;;;;;;;;;;4994640;28;38889;-79
2021/08/18 06:50:21;;;;;;;;;;;;;;;;;;4991639;28;36791;-78
2021/08/18 06:52:47;;;;;;;;;;;;;;;;;;5003163;28;38473;-78
2021/08/18 06:55:13;;;;;;;;;;;;;;;;;;5000971;28;38303;-78
2021/08/18 06:57:40;;;;;;;;;;;;;;;;;;4989457;28;39679;-78
2021/08/18 07:00:06;;;;;;;;;;;;;;;;;;4979651;28;35939;-79
2021/08/18 07:02:32;;;;;;;;;;;;;;;;;;4994238;28;47501;-79
2021/08/18 07:04:58;;;;;;;;;;;;;;;;;;4991745;28;39190;-78
2021/08/18 07:07:24;;;;;;;;;;;;;;;;;;4986672;28;41004;-79
2021/08/18 07:09:50;;;;;;;;;;;;;;;;;;4982995;28;35730;-78
2021/08/18 07:12:18;;;;;;;;;;;;;;;;;;4972243;28;39237;-78
2021/08/18 07:14:44;;;;;;;;;;;;;;;;;;4982114;28;38441;-78
2021/08/18 07:17:10;;;;;;;;;;;;;;;;;;4977244;28;37768;-79
2021/08/18 07:19:36;;;;;;;;;;;;;;;;;;4998058;28;37984;-79
2021/08/18 07:22:03;;;;;;;;;;;;;;;;;;4987839;28;37756;-79
2021/08/18 07:24:29;;;;;;;;;;;;;;;;;;5002478;28;38011;-79
2021/08/18 07:26:55;;;;;;;;;;;;;;;;;;4998282;28;38847;-78
2021/08/18 07:29:27;;;;;;;;;;;;;;;;;;5024637;28;36845;-79
2021/08/18 07:31:53;;;;;;;;;;;;;;;;;;4992483;28;38787;-78
2021/08/18 07:34:19;;;;;;;;;;;;;;;;;;4980395;28;39836;-78
2021/08/18 07:36:45;;;;;;;;;;;;;;;;;;4997648;28;38604;-78
2021/08/18 07:39:12;;;;;;;;;;;;;;;;;;5005225;28;37183;-78
2021/08/18 07:41:38;;;;;;;;;;;;;;;;;;4989815;28;39263;-77
2021/08/18 07:44:04;;;;;;;;;;;;;;;;;;4997434;28;38244;-78
2021/08/18 07:46:30;;;;;;;;;;;;;;;;;;4994028;28;39746;-78
2021/08/18 07:49:01;;;;;;;;;;;;;;;;;;5001396;28;35970;-78
2021/08/18 07:51:27;;;;;;;;;;;;;;;;;;5000608;28;47984;-78
2021/08/18 07:53:54;;;;;;;;;;;;;;;;;;5008660;28;39119;-78
2021/08/18 07:56:20;;;;;;;;;;;;;;;;;;5002247;28;39822;-78
2021/08/18 07:58:46;;;;;;;;;;;;;;;;;;5007441;28;36917;-78
2021/08/18 08:01:12;;;;;;;;;;;;;;;;;;4981666;28;39406;-78
2021/08/18 08:03:38;;;;;;;;;;;;;;;;;;4994642;28;37703;-77
2021/08/18 08:06:05;;;;;;;;;;;;;;;;;;4980515;28;37550;-77
2021/08/18 08:08:31;;;;;;;;;;;;;;;;;;5007188;28;37662;-77
2021/08/18 08:10:57;;;;;;;;;;;;;;;;;;4991616;28;37496;-77
2021/08/18 08:13:23;;;;;;;;;;;;;;;;;;4995987;28;39939;-77
2021/08/18 08:15:49;;;;;;;;;;;;;;;;;;4980246;28;38935;-77
2021/08/18 08:18:15;;;;;;;;;;;;;;;;;;4989379;28;38488;-78
2021/08/18 08:20:43;;;;;;;;;;;;;;;;;;4982707;28;39798;-77
2021/08/18 08:23:09;;;;;;;;;;;;;;;;;;4993265;28;40244;-78
2021/08/18 08:25:36;;;;;;;;;;;;;;;;;;4998189;28;37840;-77
2021/08/18 08:28:02;;;;;;;;;;;;;;;;;;4997520;28;36991;-77
2021/08/18 08:30:28;;;;;;;;;;;;;;;;;;4985849;28;37849;-77
2021/08/18 08:32:54;;;;;;;;;;;;;;;;;;4985421;28;39674;-77
2021/08/18 08:35:21;;;;;;;;;;;;;;;;;;4975400;28;39961;-78
2021/08/18 08:37:47;;;;;;;;;;;;;;;;;;4994742;28;36241;-78
2021/08/18 08:40:13;;;;;;;;;;;;;;;;;;4992619;28;39180;-77
2021/08/18 08:42:39;;;;;;;;;;;;;;;;;;4998512;28;40279;-77
2021/08/18 08:45:05;;;;;;;;;;;;;;;;;;4983055;28;39422;-78
2021/08/18 08:47:32;;;;;;;;;;;;;;;;;;4991176;28;36555;-77
2021/08/18 08:49:58;;;;;;;;;;;;;;;;;;4990621;28;39652;-77
2021/08/18 08:52:24;;;;;;;;;;;;;;;;;;4991747;28;39654;-78
2021/08/18 08:54:50;;;;;;;;;;;;;;;;;;4991906;28;39762;-77
2021/08/18 08:57:16;;;;;;;;;;;;;;;;;;4989231;28;38546;-78
2021/08/18 08:59:42;;;;;;;;;;;;;;;;;;4977374;28;40609;-78
2021/08/18 09:02:08;;;;;;;;;;;;;;;;;;4978571;28;39655;-78
2021/08/18 09:04:35;;;;;;;;;;;;;;;;;;4979088;28;38294;-77
2021/08/18 09:07:01;;;;;;;;;;;;;;;;;;4975942;28;36430;-77
2021/08/18 09:09:27;;;;;;;;;;;;;;;;;;4982602;28;47533;-77
2021/08/18 09:11:53;;;;;;;;;;;;;;;;;;4988297;28;39721;-78
2021/08/18 09:14:19;;;;;;;;;;;;;;;;;;4990462;28;38969;-79
2021/08/18 09:16:45;;;;;;;;;;;;;;;;;;4986416;28;36559;-79
2021/08/18 09:19:11;;;;;;;;;;;;;;;;;;4979862;28;39197;-78
2021/08/18 09:21:38;;;;;;;;;;;;;;;;;;4992820;28;40527;-79
2021/08/18 09:24:04;;;;;;;;;;;;;;;;;;4988791;28;38443;-79
2021/08/18 09:26:30;;;;;;;;;;;;;;;;;;4992342;28;36174;-79
2021/08/18 09:28:57;;;;;;;;;;;;;;;;;;4996847;28;38172;-78
2021/08/18 09:31:23;;;;;;;;;;;;;;;;;;4993547;28;38523;-79
2021/08/18 09:33:50;;;;;;;;;;;;;;;;;;5007225;28;38787;-79
2021/08/18 09:36:16;;;;;;;;;;;;;;;;;;5005276;28;37267;-79
2021/08/18 09:41:31;;;;;;;;;;;;;;;;;;5164020;23;19921;-79
2021/08/18 09:44:05;;;;;;;;;;;;;;;;;;4991648;28;40707;-79
2021/08/18 09:46:37;;;;;;;;;;;;;;;;;;4970907;28;49587;-80
2021/08/18 09:49:03;;;;;;;;;;;;;;;;;;4993336;28;39350;-79
2021/08/18 09:51:29;;;;;;;;;;;;;;;;;;4977825;28;39385;-79
2021/08/18 09:54:11;;;;;;;;;;;;;;;;;;4984803;28;37104;-79
2021/08/18 09:56:38;;;;;;;;;;;;;;;;;;5009119;28;49013;-79
2021/08/18 09:59:04;;;;;;;;;;;;;;;;;;5006435;28;40543;-78
2021/08/18 10:01:30;;;;;;;;;;;;;;;;;;5006985;28;46743;-77
2021/08/18 10:03:57;;;;;;;;;;;;;;;;;;4987693;28;38953;-78
2021/08/18 10:06:23;;;;;;;;;;;;;;;;;;5006374;28;35558;-78
2021/08/18 10:08:52;;;;;;;;;;;;;;;;;;4988015;28;39109;-79
2021/08/18 10:11:20;;;;;;;;;;;;;;;;;;5058652;22;38982;-79
2021/08/18 10:16:43;;;;;;;;;;;;;;;;;;5064426;22;50865;-80
2021/08/18 10:19:20;;;;;;;;;;;;;;;;;;5003563;28;39474;-81
2021/08/18 10:21:46;;;;;;;;;;;;;;;;;;5005207;28;39541;-80
2021/08/18 10:24:18;;;;;;;;;;;;;;;;;;4985920;28;38628;-80
2021/08/18 10:26:53;;;;;;;;;;;;;;;;;;4994430;28;37019;-80
2021/08/18 10:29:21;;;;;;;;;;;;;;;;;;4979675;28;39236;-81
2021/08/18 10:31:51;;;;;;;;;;;;;;;;;;4989178;28;39460;-80
2021/08/18 10:50:16;;;;;;;;;;;;;;;;;;5134601;23;39485;-81
2021/08/18 10:58:11;;;;;;;;;;;;;;;;;;5030565;28;19932;-79
2021/08/18 11:00:37;;;;;;;;;;;;;;;;;;5037968;28;39027;-78
2021/08/18 11:19:00;;;;;;;;;;;;;;;;;;5042593;23;19917;-82
2021/08/18 11:31:53;;;;;;;;;;;;;;;;;;6103670;23;21593;-82
2021/08/18 11:34:19;;;;;;;;;;;;;;;;;;5459318;23;38077;-79
2021/08/18 11:49:46;;;;;;;;;;;;;;;;;;5778147;22;20349;-78
2021/08/18 12:32:36;;;;;;;;;;;;;;;;;;5582096;23;19926;-82
2021/08/18 12:48:36;;;;;;;;;;;;;;;;;;5268852;22;19920;-79
2021/08/18 13:04:03;;;;;;;;;;;;;;;;;;5522560;22;19926;-81
2021/08/18 13:33:41;;;;;;;;;;;;;;;;;;5985307;23;20273;-79
2021/08/18 14:15:25;;;;;;;;;;;;;;;;;;5885290;22;19910;-81
2021/08/18 15:58:57;;;;;;;;;;;;;;;;;;6007109;22;19918;-81
2021/08/18 16:19:55;;;;;;;;;;;;;;;;;;5733080;22;19920;-80
2021/08/18 16:33:20;;;;;;;;;;;;;;;;;;5121226;23;19930;-79
2021/08/18 18:40:23;;;;;;;11.35;6.32;;;19.20;99.90;;;;;;5089105;27;20129;-83
2021/08/18 18:42:50;;;;;;;10.02;6.57;;;18.80;99.90;;;;;;5076399;28;36672;-84
2021/08/18 18:45:17;;;;;;;12.70;6.82;;;18.80;99.90;;;;;;5080231;27;37768;-82
2021/08/18 18:47:43;;;;;;;9.45;5.78;;;18.70;99.90;;;;;;5074664;28;37817;-83
2021/08/18 18:50:09;;;;;;;11.27;5.90;;;18.60;99.90;;;;;;5078278;27;36921;-83
2021/08/18 18:52:36;;;;;;;12.82;6.40;;;18.60;99.90;;;;;;5078039;27;36754;-82
2021/08/18 18:55:03;;;;;;;8.10;5.78;;;18.60;99.90;;;;;;5080265;27;35871;-83
2021/08/18 18:57:29;;;;;;;13.82;7.07;;;18.60;99.90;;;;;;5133447;27;39919;-83
2021/08/18 18:59:55;;;;;;;9.98;6.18;;;18.60;99.90;;;;;;5104299;27;37334;-84
2021/08/18 19:02:21;;;;;;;12.70;6.93;;;18.60;99.90;;;;;;5078888;27;37487;-83
2021/08/18 19:04:47;;;;;;;9.88;6.40;;;18.60;99.90;;;;;;5076193;27;37189;-84
2021/08/18 19:07:14;;;;;;;8.80;6.00;;;18.60;99.90;;;;;;5082084;27;38159;-83
2021/08/18 19:09:40;;;;;;;13.25;7.05;;;18.60;99.90;;;;;;5080473;27;37200;-83
2021/08/18 19:12:06;;;;;;;19.70;6.95;;;18.60;99.90;;;;;;5077628;27;37416;-83
2021/08/18 19:14:33;;;;;;;11.77;7.30;;;18.60;99.90;;;;;;5080493;28;36745;-84
2021/08/18 19:16:59;;;;;;;13.13;6.63;;;18.60;99.90;;;;;;5077653;27;38905;-84
2021/08/18 19:19:25;;;;;;;9.15;5.82;;;18.60;99.90;;;;;;5078266;27;38879;-84
2021/08/18 19:21:51;;;;;;;13.55;6.22;;;18.60;99.90;;;;;;5077665;27;36808;-83
2021/08/18 19:24:18;;;;;;;10.90;5.35;;;18.60;99.90;;;;;;5073277;27;37852;-83
2021/08/18 19:26:44;;;;;;;11.88;5.93;;;18.60;99.90;;;;;;5078015;27;38887;-86
2021/08/18 19:29:10;;;;;;;11.90;5.85;;;18.60;99.90;;;;;;5076364;27;38366;-85
2021/08/18 19:31:36;;;;;;;12.43;5.90;;;18.60;99.90;;;;;;5076051;27;38293;-84
2021/08/18 19:34:04;;;;;;;12.57;5.82;;;18.60;99.90;;;;;;5075785;27;37274;-83
2021/08/18 19:36:30;;;;;;;10.35;6.13;;;18.60;99.90;;;;;;5075844;27;36972;-82
2021/08/18 19:38:57;;;;;;;9.25;5.57;;;18.60;99.90;;;;;;5077923;28;37368;-83
2021/08/18 19:41:23;;;;;;;9.45;5.40;;;18.60;99.90;;;;;;5075970;27;37097;-83
2021/08/18 19:43:50;;;;;;;8.13;5.25;;;18.60;99.90;;;;;;5080281;27;37335;-84
2021/08/18 19:46:16;;;;;;;9.68;5.32;;;18.60;99.90;;;;;;5076105;27;38782;-87
2021/08/18 19:48:42;;;;;;;9.05;4.97;;;18.60;99.90;;;;;;5089688;27;38175;-86
2021/08/18 19:51:09;;;;;;;11.85;5.47;;;18.70;99.90;;;;;;5065509;28;36523;-88
2021/08/18 19:53:36;;;;;;;13.23;5.43;;;18.60;99.90;;;;;;5059922;28;36842;-84
2021/08/18 19:56:07;;;;;;;10.63;5.28;;;18.60;99.90;;;;;;5063357;27;37693;-87
2021/08/18 19:58:35;;;;;;;11.23;5.55;;;18.60;99.90;;;;;;5065649;28;37542;-87
2021/08/18 20:01:01;;;;;;;11.20;6.15;;;18.60;99.90;;;;;;5062193;27;37669;-85
2021/08/18 20:03:29;;;;;;;9.70;5.38;;;18.60;99.90;;;;;;5064400;27;35946;-86
2021/08/18 20:05:56;;;;;;;11.80;6.28;;;18.70;99.90;;;;;;5092193;27;39083;-85
2021/08/18 20:08:22;;;;;;;11.35;5.60;;;18.70;99.90;;;;;;5065345;27;38353;-85
2021/08/18 20:10:48;;;;;;;15.10;6.43;;;18.60;99.90;;;;;;5060625;27;37669;-85
2021/08/18 20:13:15;;;;;;;10.05;6.40;;;18.60;99.90;;;;;;5059656;27;37086;-86
2021/08/18 20:15:42;;;;;;;8.63;5.95;;;18.60;99.90;;;;;;5059352;27;40717;-87
2021/08/18 20:18:08;;;;;;;11.05;6.05;;;18.60;99.90;;;;;;5064263;27;37257;-85
2021/08/18 20:20:34;;;;;;;11.68;5.93;;;18.60;99.90;;;;;;5068187;27;38001;-82
2021/08/18 20:23:00;;;;;;;12.07;5.97;;;18.60;99.90;;;;;;5065744;28;37988;-86
2021/08/18 20:25:26;;;;;;;11.80;6.47;;;18.60;99.90;;;;;;5065413;28;37889;-87
2021/08/18 20:27:52;;;;;;;12.93;6.82;;;18.70;99.90;;;;;;5066855;28;38561;-87
2021/08/18 20:30:18;;;;;;;12.20;6.88;;;18.60;99.90;;;;;;5063384;27;37422;-86
2021/08/18 20:32:44;;;;;;;14.35;7.07;;;18.60;99.90;;;;;;5062104;28;36997;-85
2021/08/18 20:35:10;;;;;;;13.35;6.43;;;18.60;99.90;;;;;;5062406;28;39741;-85
2021/08/18 20:37:37;;;;;;;13.82;6.72;;;18.60;99.90;;;;;;5060256;28;38793;-85
2021/08/18 20:40:05;;;;;;;18.38;6.88;;;18.60;99.90;;;;;;5063041;28;36863;-88
2021/08/18 20:42:31;;;;;;;20.70;7.85;;;18.60;99.90;;;;;;5064889;27;46600;-85
2021/08/18 20:44:57;;;;;;;14.65;7.07;;;18.60;99.90;;;;;;5073291;28;37454;-85
2021/08/18 20:47:23;;;;;;;19.67;7.82;;;18.60;99.90;;;;;;5073026;27;39146;-85
2021/08/18 20:49:50;;;;;;;17.33;7.20;;;18.60;99.90;;;;;;5077580;28;38052;-84
2021/08/18 20:52:17;;;;;;;20.00;8.70;;;18.60;99.90;;;;;;5071632;27;36838;-83
2021/08/18 20:54:43;;;;;;;19.88;8.55;;;18.60;99.90;;;;;;5082073;27;37610;-84
2021/08/18 20:57:09;;;;;;;18.77;8.50;;;18.60;99.90;;;;;;5050407;27;39103;-84
2021/08/18 20:59:35;;;;;;;16.80;8.50;;;18.60;99.90;;;;;;5053659;27;38758;-85
2021/08/18 21:02:01;;;;;;;22.38;8.63;;;18.60;99.90;;;;;;5051562;27;36991;-82
2021/08/18 21:04:27;;;;;;;15.48;7.68;;;18.60;99.90;;;;;;5081691;27;37512;-85
2021/08/18 21:06:53;;;;;;;17.42;7.47;;;18.60;99.90;;;;;;5083963;27;36327;-85
2021/08/18 21:09:19;;;;;;;15.90;7.60;;;18.50;99.90;;;;;;5048774;27;38958;-85
2021/08/18 21:11:46;;;;;;;19.67;7.75;;;18.60;99.90;;;;;;5049913;28;36859;-84
2021/08/18 21:14:12;;;;;;;11.80;6.55;;;18.50;99.90;;;;;;5050340;28;39100;-85
2021/08/18 21:16:38;;;;;;;13.57;6.05;;;18.50;99.90;;;;;;5044085;27;38420;-84
2021/08/18 21:19:05;;;;;;;11.88;5.30;;;18.40;99.90;;;;;;5048868;27;37278;-84
2021/08/18 21:21:31;;;;;;;11.98;5.20;;;18.30;99.90;;;;;;5108699;27;37250;-85
2021/08/18 21:23:57;;;;;;;6.45;4.53;;;18.20;99.90;;;;;;5072138;27;37878;-86
2021/08/18 21:26:23;;;;;;;6.40;4.57;;;18.20;99.90;;;;;;5067004;28;36717;-85
2021/08/18 21:28:49;;;;;;;7.75;4.57;;;18.20;99.90;;;;;;5069904;27;37896;-86
2021/08/18 21:31:16;;;;;;;6.47;4.28;;;18.20;99.90;;;;;;5054269;27;37361;-86
2021/08/18 21:33:43;;;;;;;10.32;4.32;;;18.20;99.90;;;;;;5085331;27;39767;-86
2021/08/18 21:36:10;;;;;;;5.15;4.35;;;18.20;99.90;;;;;;5049439;28;39711;-86
2021/08/18 21:38:37;;;;;;;7.90;4.13;;;18.20;99.90;;;;;;5048794;28;36772;-86
2021/08/18 21:41:05;;;;;;;7.30;4.40;;;18.20;99.90;;;;;;5053084;28;36682;-85
2021/08/18 21:43:36;;;;;;;7.97;3.85;;;18.20;99.90;;;;;;5062431;28;38822;-86
2021/08/18 21:46:03;;;;;;;7.25;4.00;;;18.10;99.90;;;;;;5052442;27;37402;-85
2021/08/18 21:48:29;;;;;;;8.35;4.75;;;18.10;99.90;;;;;;5065040;27;37161;-87
2021/08/18 21:50:55;;;;;;;7.07;4.05;;;18.10;99.90;;;;;;5063710;27;36517;-87
2021/08/18 21:53:21;;;;;;;7.47;4.22;;;18.10;99.90;;;;;;5065969;28;37929;-86
2021/08/18 21:55:47;;;;;;;7.57;4.13;;;18.10;99.90;;;;;;5056517;28;37285;-86
2021/08/18 21:58:16;;;;;;;5.70;3.80;;;18.10;99.90;;;;;;5061733;28;36746;-86
2021/08/18 22:00:43;;;;;;;5.53;4.03;;;18.10;99.90;;;;;;5049052;28;37325;-86
2021/08/18 22:03:09;;;;;;;5.70;4.05;;;18.10;99.90;;;;;;5051323;27;39099;-87
2021/08/18 22:05:35;;;;;;;5.45;3.80;;;18.10;99.90;;;;;;5042743;28;38166;-86
2021/08/18 22:08:01;;;;;;;5.82;3.20;;;18.10;99.90;;;;;;5051908;28;36440;-86
2021/08/18 22:10:28;;;;;;;5.30;3.80;;;18.20;99.90;;;;;;5040120;28;46418;-86
2021/08/18 22:12:54;;;;;;;4.97;3.22;;;18.10;99.90;;;;;;5045932;28;39324;-86
2021/08/18 22:15:21;;;;;;;7.88;3.95;;;18.20;99.90;;;;;;5050479;27;37415;-85
2021/08/18 22:17:47;;;;;;;8.40;3.55;;;18.10;99.90;;;;;;5046818;28;36583;-86
2021/08/18 22:20:13;;;;;;;4.93;3.60;;;18.10;99.90;;;;;;5067279;27;36248;-86
2021/08/18 22:22:40;;;;;;;7.22;3.70;;;18.10;99.90;;;;;;5096391;27;38886;-86
2021/08/18 22:25:07;;;;;;;5.32;3.80;;;18.10;99.90;;;;;;5045152;28;39278;-85
2021/08/18 22:27:33;;;;;;;4.38;3.30;;;18.10;99.90;;;;;;5047010;28;38080;-87
2021/08/18 22:30:00;;;;;;;8.02;4.25;;;18.10;99.90;;;;;;5054307;28;36351;-87
2021/08/18 22:32:26;;;;;;;6.07;3.53;;;18.10;99.90;;;;;;5050834;27;37446;-86
2021/08/18 22:34:52;;;;;;;5.07;3.78;;;18.10;99.90;;;;;;5051724;28;38231;-86
2021/08/18 22:37:18;;;;;;;5.95;4.00;;;18.10;99.90;;;;;;5050801;28;36848;-85
2021/08/18 22:39:44;;;;;;;4.70;3.60;;;18.10;99.90;;;;;;5055571;28;36254;-86
2021/08/18 22:42:10;;;;;;;5.22;4.00;;;18.00;99.90;;;;;;5050233;27;38002;-85
2021/08/18 22:44:36;;;;;;;4.05;3.40;;;18.00;99.90;;;;;;5051375;28;38251;-86
2021/08/18 22:47:03;;;;;;;10.23;5.05;;;18.00;99.90;;;;;;5084612;27;36940;-85
2021/08/18 22:49:29;;;;;;;7.40;4.97;;;18.00;99.90;;;;;;5048554;28;38222;-86
2021/08/18 22:51:55;;;;;;;4.43;4.00;;;18.00;99.90;;;;;;5045547;28;38892;-86
2021/08/18 22:54:21;;;;;;;4.93;3.67;;;18.00;99.90;;;;;;5050113;28;38784;-86
2021/08/18 22:56:47;;;;;;;6.07;4.10;;;18.00;99.90;;;;;;5048529;28;37673;-86
2021/08/18 22:59:14;;;;;;;8.00;4.38;;;18.00;99.90;;;;;;5053732;28;37193;-86
2021/08/18 23:01:40;;;;;;;7.78;4.82;;;18.00;99.90;;;;;;5050388;28;39556;-86
2021/08/18 23:04:06;;;;;;;10.98;5.75;;;17.90;99.90;;;;;;5054449;28;38470;-86
2021/08/18 23:06:32;;;;;;;5.13;3.75;;;17.90;99.90;;;;;;5051618;27;36873;-86
2021/08/18 23:08:58;;;;;;;9.77;5.07;;;18.00;99.90;;;;;;5052309;28;36178;-86
2021/08/18 23:11:24;;;;;;;9.68;5.43;;;17.90;99.90;;;;;;5055278;27;38734;-86
2021/08/18 23:13:50;;;;;;;14.55;7.03;;;17.90;99.90;;;;;;5081951;27;37720;-86
2021/08/18 23:16:17;;;;;;;18.27;8.02;;;17.90;99.90;;;;;;5049341;27;37640;-86
2021/08/18 23:18:44;;;;;;;11.10;7.20;;;17.90;99.90;;;;;;5088366;27;36477;-86
2021/08/18 23:21:10;;;;;;;11.15;7.30;;;17.80;99.90;;;;;;5087456;27;38016;-87
2021/08/18 23:23:36;;;;;;;9.82;7.20;;;17.70;99.90;;;;;;5064412;28;36936;-87
2021/08/18 23:26:02;;;;;;;8.10;6.63;;;17.70;99.90;;;;;;5053467;27;34969;-87
2021/08/18 23:28:28;;;;;;;10.98;6.82;;;17.60;99.90;;;;;;5053744;28;37339;-86
2021/08/18 23:30:56;;;;;;;9.65;6.53;;;17.60;99.90;;;;;;5055731;27;38204;-86
2021/08/18 23:33:22;;;;;;;10.80;7.15;;;17.50;99.90;;;;;;5053247;28;37530;-86
2021/08/18 23:35:49;;;;;;;11.10;5.90;;;17.50;99.90;;;;;;5053116;28;36916;-86
2021/08/18 23:38:18;;;;;;;8.52;6.57;;;17.50;99.90;;;;;;5085840;27;35926;-86
2021/08/18 23:40:44;;;;;;;9.02;7.28;;;17.50;99.90;;;;;;5057757;27;39654;-86
2021/08/18 23:43:10;;;;;;;7.85;5.65;;;17.50;99.90;;;;;;5072153;27;37384;-87
2021/08/18 23:45:36;;;;;;;8.55;6.28;;;17.50;99.90;;;;;;5065890;27;38548;-86
2021/08/18 23:48:02;;;;;;;8.93;6.13;;;17.50;99.90;;;;;;5066885;27;36485;-86
2021/08/18 23:50:28;;;;;;;7.55;5.78;;;17.50;99.90;;;;;;5053220;28;39156;-87
2021/08/18 23:52:54;;;;;;;9.13;6.78;;;17.50;99.90;;;;;;5068680;28;37613;-86
2021/08/18 23:55:20;;;;;;;6.82;5.90;;;17.50;99.90;;;;;;5085196;27;38415;-87
2021/08/18 23:57:46;;;;;;;8.73;6.07;;;17.50;99.90;;;;;;5053053;28;36060;-86
